createdAt,value
2022-10-12T00:00:49.944Z,6.93
2022-10-12T00:03:18.351Z,6.63
2022-10-12T00:05:46.591Z,6.35
2022-10-12T00:11:18.823Z,6.15
2022-10-12T00:13:46.600Z,6.18
2022-10-12T00:16:34.759Z,6.28
2022-10-12T00:19:02.551Z,6.28
2022-10-12T00:21:31.140Z,6.28
2022-10-12T00:24:01.949Z,6.22
2022-10-12T00:26:30.150Z,6.63
2022-10-12T00:31:27.580Z,5.82
2022-10-12T00:33:55.441Z,5.75
2022-10-12T00:36:32.473Z,6.22
2022-10-12T00:39:00.836Z,6.00
2022-10-12T00:41:31.179Z,5.35
2022-10-12T00:43:59.179Z,5.93
2022-10-12T00:46:35.895Z,6.13
2022-10-12T00:49:12.514Z,6.18
2022-10-12T00:51:42.196Z,6.00
2022-10-12T00:54:14.134Z,6.50
2022-10-12T00:56:44.811Z,6.35
2022-10-12T00:59:22.936Z,6.18
2022-10-12T01:01:50.988Z,5.75
2022-10-12T01:04:18.667Z,5.78
2022-10-12T01:06:46.231Z,6.32
2022-10-12T01:09:14.748Z,6.10
2022-10-12T01:11:42.279Z,6.05
2022-10-12T01:14:10.282Z,6.15
2022-10-12T01:16:47.975Z,5.43
2022-10-12T01:20:02.543Z,5.75
2022-10-12T01:22:36.608Z,5.70
2022-10-12T01:25:32.046Z,5.68
2022-10-12T01:28:12.781Z,6.15
2022-10-12T01:30:45.648Z,5.78
2022-10-12T01:33:35.542Z,6.03
2022-10-12T01:36:17.043Z,5.55
2022-10-12T01:38:47.302Z,5.57
2022-10-12T01:41:26.859Z,6.00
2022-10-12T01:43:54.645Z,6.07
2022-10-12T01:46:24.956Z,5.65
2022-10-12T01:48:57.754Z,5.70
2022-10-12T01:51:45.576Z,6.03
2022-10-12T01:54:19.079Z,6.07
2022-10-12T01:56:58.680Z,5.28
2022-10-12T02:00:00.236Z,5.53
2022-10-12T02:02:48.534Z,5.72
2022-10-12T02:05:19.296Z,5.32
2022-10-12T02:08:06.394Z,5.63
2022-10-12T02:10:40.549Z,5.17
2022-10-12T02:13:13.010Z,4.93
2022-10-12T02:15:43.161Z,5.38
2022-10-12T02:18:16.043Z,5.25
2022-10-12T02:20:47.790Z,4.82
2022-10-12T02:23:19.690Z,5.10
2022-10-12T02:25:49.272Z,5.05
2022-10-12T02:28:20.836Z,5.70
2022-10-12T02:30:57.894Z,5.10
2022-10-12T02:33:37.984Z,4.70
2022-10-12T02:36:14.633Z,4.78
2022-10-12T02:38:53.131Z,5.20
2022-10-12T02:41:28.187Z,4.25
2022-10-12T02:44:03.313Z,4.32
2022-10-12T02:46:33.523Z,4.75
2022-10-12T02:49:04.409Z,4.22
2022-10-12T02:51:33.630Z,4.45
2022-10-12T02:54:02.416Z,5.03
2022-10-12T02:56:29.984Z,5.43
2022-10-12T02:58:57.876Z,4.88
2022-10-12T03:01:25.688Z,4.70
2022-10-12T03:03:53.302Z,5.15
2022-10-12T03:06:21.048Z,5.63
2022-10-12T03:08:48.603Z,4.90
2022-10-12T03:11:16.912Z,5.47
2022-10-12T03:13:44.481Z,5.57
2022-10-12T03:16:12.228Z,5.25
2022-10-12T03:18:40.071Z,5.15
2022-10-12T03:21:07.769Z,5.57
2022-10-12T03:23:35.412Z,5.22
2022-10-12T03:26:03.452Z,5.85
2022-10-12T03:28:31.209Z,5.40
2022-10-12T03:30:59.287Z,5.47
2022-10-12T03:33:26.913Z,6.05
2022-10-12T03:35:54.638Z,5.68
2022-10-12T03:38:22.151Z,5.70
2022-10-12T03:40:49.814Z,5.13
2022-10-12T03:43:17.446Z,5.68
2022-10-12T03:45:45.091Z,4.72
2022-10-12T03:48:12.704Z,4.53
2022-10-12T03:50:40.301Z,5.32
2022-10-12T03:53:08.154Z,5.28
2022-10-12T03:55:35.726Z,4.55
2022-10-12T03:58:03.302Z,4.95
2022-10-12T04:00:30.909Z,4.63
2022-10-12T04:02:58.554Z,4.03
2022-10-12T04:05:26.122Z,4.43
2022-10-12T04:07:53.634Z,4.05
2022-10-12T04:10:22.768Z,4.30
2022-10-12T04:12:50.411Z,4.38
2022-10-12T04:15:18.262Z,5.10
2022-10-12T04:17:46.348Z,4.65
2022-10-12T04:20:13.898Z,4.53
2022-10-12T04:22:41.431Z,4.47
2022-10-12T04:25:11.168Z,3.90
2022-10-12T04:27:39.222Z,3.92
2022-10-12T04:30:07.673Z,3.47
2022-10-12T04:35:03.903Z,4.05
2022-10-12T04:37:31.444Z,4.03
2022-10-12T04:39:59.227Z,4.32
2022-10-12T04:42:26.713Z,5.63
2022-10-12T04:44:54.274Z,4.43
2022-10-12T04:47:21.935Z,5.22
2022-10-12T04:49:49.487Z,6.07
2022-10-12T04:52:17.060Z,6.47
2022-10-12T04:54:44.653Z,6.20
2022-10-12T04:57:12.187Z,6.35
2022-10-12T04:59:39.932Z,5.80
2022-10-12T05:02:07.790Z,6.15
2022-10-12T05:07:07.951Z,5.93
2022-10-12T05:09:35.520Z,6.00
2022-10-12T05:12:03.238Z,4.90
2022-10-12T05:14:35.129Z,4.63
2022-10-12T05:17:07.559Z,4.20
2022-10-12T05:19:37.864Z,4.32
2022-10-12T05:22:05.593Z,4.03
2022-10-12T05:24:33.351Z,4.30
2022-10-12T05:27:01.089Z,4.25
2022-10-12T05:29:28.968Z,4.32
2022-10-12T05:31:58.614Z,4.68
2022-10-12T05:34:28.657Z,4.53
2022-10-12T05:37:00.797Z,4.45
2022-10-12T05:39:31.213Z,4.82
2022-10-12T05:41:58.898Z,4.80
2022-10-12T05:44:26.727Z,4.93
2022-10-12T05:46:54.432Z,5.05
2022-10-12T05:49:22.280Z,5.13
2022-10-12T05:51:50.154Z,5.10
2022-10-12T05:54:17.910Z,5.68
2022-10-12T05:56:45.652Z,5.13
2022-10-12T05:59:13.482Z,4.88
2022-10-12T06:01:41.316Z,5.45
2022-10-12T06:04:24.118Z,5.90
2022-10-12T06:07:26.084Z,5.07
2022-10-12T06:10:14.551Z,5.32
2022-10-12T06:13:36.746Z,5.47
2022-10-12T06:21:03.986Z,5.30
2022-10-12T06:24:45.875Z,5.78
2022-10-12T06:29:18.614Z,6.20
2022-10-12T06:45:26.950Z,6.60
2022-10-12T06:50:54.435Z,7.78
2022-10-12T06:52:54.188Z,6.25
2022-10-12T06:55:52.732Z,6.25
2022-10-12T07:01:44.878Z,6.40
2022-10-12T07:05:00.711Z,7.63
2022-10-12T07:08:38.659Z,7.13
2022-10-12T07:12:24.687Z,7.00
2022-10-12T07:24:57.556Z,6.32
2022-10-12T07:31:16.213Z,7.60
2022-10-12T07:33:48.710Z,7.30
2022-10-12T07:36:41.006Z,7.65
2022-10-12T07:39:35.753Z,7.78
2022-10-12T07:43:15.140Z,7.32
2022-10-12T07:47:03.289Z,10.52
2022-10-12T07:49:31.660Z,10.50
2022-10-12T07:52:00.917Z,10.23
2022-10-12T07:54:29.795Z,11.25
2022-10-12T07:57:03.828Z,11.45
2022-10-12T07:59:50.131Z,11.20
2022-10-12T08:02:21.368Z,11.35
2022-10-12T08:04:55.584Z,10.88
2022-10-12T08:07:36.490Z,12.30
2022-10-12T08:10:16.360Z,14.50
2022-10-12T08:12:52.107Z,12.75
2022-10-12T08:15:49.724Z,13.82
2022-10-12T08:18:19.816Z,15.48
2022-10-12T08:20:48.936Z,17.83
2022-10-12T08:23:16.871Z,18.25
2022-10-12T08:25:57.498Z,19.83
2022-10-12T08:28:28.118Z,15.50
2022-10-12T08:30:56.048Z,13.82
2022-10-12T08:33:24.931Z,13.70
2022-10-12T08:35:52.493Z,11.30
2022-10-12T08:38:20.126Z,10.15
2022-10-12T08:40:55.084Z,8.23
2022-10-12T08:43:49.604Z,8.43
2022-10-12T08:46:21.055Z,5.82
2022-10-12T08:49:05.171Z,6.53
2022-10-12T08:51:45.361Z,6.03
2022-10-12T08:54:15.679Z,6.10
2022-10-12T08:56:49.016Z,5.82
2022-10-12T08:59:20.888Z,6.00
2022-10-12T09:02:25.891Z,5.00
2022-10-12T09:05:03.393Z,5.90
2022-10-12T09:07:43.564Z,5.18
2022-10-12T09:10:43.747Z,4.82
2022-10-12T09:13:36.108Z,4.43
2022-10-12T09:16:24.983Z,4.55
2022-10-12T09:18:59.013Z,4.75
2022-10-12T09:21:29.039Z,3.63
2022-10-12T09:23:57.498Z,4.00
2022-10-12T09:26:37.660Z,4.70
2022-10-12T09:29:27.153Z,4.15
2022-10-12T09:32:31.903Z,4.68
2022-10-12T09:35:00.223Z,4.45
2022-10-12T09:40:00.140Z,4.30
2022-10-12T09:45:19.894Z,4.43
2022-10-12T09:48:14.587Z,4.80
2022-10-12T09:50:58.083Z,4.10
2022-10-12T09:53:31.587Z,4.05
2022-10-12T09:56:22.944Z,4.30
2022-10-12T09:58:56.767Z,4.30
2022-10-12T10:01:30.523Z,3.65
2022-10-12T10:04:23.352Z,3.88
2022-10-12T10:06:51.470Z,3.60
2022-10-12T10:09:32.244Z,3.60
2022-10-12T10:12:28.894Z,3.38
2022-10-12T10:15:01.141Z,3.15
2022-10-12T10:17:33.966Z,3.40
2022-10-12T10:20:05.379Z,3.55
2022-10-12T10:22:35.639Z,3.28
2022-10-12T10:25:03.451Z,4.10
2022-10-12T10:27:39.998Z,3.67
2022-10-12T10:30:30.074Z,3.38
2022-10-12T10:33:21.408Z,3.35
2022-10-12T10:35:58.164Z,3.30
2022-10-12T10:38:31.821Z,2.80
2022-10-12T10:41:02.727Z,3.03
2022-10-12T10:43:34.413Z,3.00
2022-10-12T10:46:06.372Z,3.47
2022-10-12T10:48:58.381Z,3.00
2022-10-12T10:52:09.323Z,3.38
2022-10-12T10:54:38.755Z,2.97
2022-10-12T10:57:29.249Z,3.53
2022-10-12T11:00:33.720Z,3.42
2022-10-12T11:02:58.519Z,3.42
2022-10-12T11:05:43.299Z,3.20
2022-10-12T11:08:21.969Z,3.53
2022-10-12T11:11:20.382Z,3.60
2022-10-12T11:14:00.561Z,3.17
2022-10-12T11:16:34.254Z,3.28
2022-10-12T11:19:11.587Z,3.58
2022-10-12T11:21:47.234Z,3.47
2022-10-12T11:24:28.611Z,3.38
2022-10-12T11:27:28.723Z,3.40
2022-10-12T11:30:09.769Z,3.85
2022-10-12T11:33:03.213Z,3.83
2022-10-12T11:35:40.151Z,4.15
2022-10-12T11:38:23.460Z,3.88
2022-10-12T11:41:19.164Z,3.20
2022-10-12T11:44:02.501Z,4.45
2022-10-12T11:46:42.784Z,3.40
2022-10-12T11:49:28.383Z,3.28
2022-10-12T11:51:59.641Z,3.13
2022-10-12T11:54:29.914Z,3.30
2022-10-12T11:57:03.539Z,3.47
2022-10-12T11:59:44.340Z,3.67
2022-10-12T12:02:33.976Z,3.10
2022-10-12T12:05:52.174Z,3.00
2022-10-12T12:08:40.916Z,3.13
2022-10-12T12:11:28.231Z,3.20
2022-10-12T12:14:28.704Z,2.95
2022-10-12T12:17:44.513Z,2.95
2022-10-12T12:20:51.751Z,3.03
2022-10-12T12:23:27.724Z,3.20
2022-10-12T12:26:31.234Z,2.88
2022-10-12T12:29:13.449Z,3.00
2022-10-12T12:31:56.351Z,2.78
2022-10-12T12:34:28.092Z,3.00
2022-10-12T12:36:58.536Z,2.55
2022-10-12T12:39:44.819Z,3.17
2022-10-12T12:42:23.103Z,2.90
2022-10-12T12:44:52.366Z,3.28
2022-10-12T12:47:45.439Z,3.38
2022-10-12T12:50:31.551Z,3.38
2022-10-12T12:53:13.300Z,4.30
2022-10-12T12:56:10.519Z,4.50
2022-10-12T12:59:14.687Z,3.58
2022-10-12T13:01:51.056Z,3.67
2022-10-12T13:04:41.712Z,3.53
2022-10-12T13:07:26.484Z,3.33
2022-10-12T13:10:21.054Z,5.90
2022-10-12T13:13:09.120Z,3.05
2022-10-12T13:16:09.250Z,2.70
2022-10-12T13:19:11.605Z,2.53
2022-10-12T13:21:49.413Z,2.50
2022-10-12T13:24:26.314Z,2.50
2022-10-12T13:27:27.289Z,2.63
2022-10-12T13:30:26.292Z,2.60
2022-10-12T13:33:17.373Z,2.22
2022-10-12T13:36:14.505Z,2.42
2022-10-12T13:38:45.013Z,2.42
2022-10-12T13:41:15.022Z,2.42
2022-10-12T13:43:46.499Z,1.92
2022-10-12T13:46:42.251Z,2.30
2022-10-12T13:49:27.123Z,2.30
2022-10-12T13:52:05.251Z,2.15
2022-10-12T13:54:44.996Z,2.10
2022-10-12T13:57:39.259Z,2.53
2022-10-12T14:00:21.159Z,2.30
2022-10-12T14:02:59.504Z,2.28
2022-10-12T14:06:21.581Z,2.38
2022-10-12T14:08:50.928Z,2.10
2022-10-12T14:14:05.909Z,2.00
2022-10-12T14:15:34.032Z,2.13
2022-10-12T14:18:05.396Z,2.50
2022-10-12T14:20:44.469Z,2.20
2022-10-12T14:23:27.160Z,2.40
2022-10-12T14:26:05.624Z,2.70
2022-10-12T14:28:37.967Z,2.40
2022-10-12T14:31:28.569Z,2.33
2022-10-12T14:34:30.297Z,2.28
2022-10-12T14:37:07.708Z,2.40
2022-10-12T14:39:35.712Z,2.45
2022-10-12T14:42:05.033Z,2.10
2022-10-12T14:44:49.609Z,1.95
2022-10-12T14:47:40.842Z,2.35
2022-10-12T14:50:24.373Z,2.10
2022-10-12T14:52:59.466Z,2.10
2022-10-12T14:55:34.848Z,1.98
2022-10-12T14:58:09.742Z,2.22
2022-10-12T15:00:48.932Z,2.17
2022-10-12T15:03:20.336Z,2.20
2022-10-12T15:05:53.265Z,2.38
2022-10-12T15:08:21.173Z,2.38
2022-10-12T15:10:52.685Z,2.45
2022-10-12T15:13:22.325Z,2.50
2022-10-12T15:15:50.231Z,2.50
2022-10-12T15:18:19.944Z,2.90
2022-10-12T15:20:49.715Z,2.60
2022-10-12T15:23:17.829Z,2.88
2022-10-12T15:25:50.364Z,3.00
2022-10-12T15:28:18.636Z,3.67
2022-10-12T15:31:15.242Z,3.67
2022-10-12T15:36:01.316Z,3.60
2022-10-12T15:38:28.863Z,3.70
2022-10-12T15:40:58.179Z,3.38
2022-10-12T15:43:26.054Z,3.22
2022-10-12T15:45:53.613Z,3.30
2022-10-12T15:48:21.237Z,3.38
2022-10-12T15:50:50.036Z,3.30
2022-10-12T15:53:24.886Z,3.70
2022-10-12T15:55:54.017Z,3.70
2022-10-12T15:58:21.879Z,3.75
2022-10-12T16:00:49.680Z,3.70
2022-10-12T16:03:25.504Z,3.78
2022-10-12T16:05:54.683Z,4.20
2022-10-12T16:08:22.189Z,4.28
2022-10-12T16:10:50.384Z,3.88
2022-10-12T16:13:20.439Z,4.43
2022-10-12T16:15:48.147Z,4.60
2022-10-12T16:18:16.157Z,4.15
2022-10-12T16:20:46.654Z,4.28
2022-10-12T16:23:31.690Z,4.05
2022-10-12T16:26:02.942Z,4.03
2022-10-12T16:28:30.902Z,3.97
2022-10-12T16:30:58.355Z,4.10
2022-10-12T16:33:28.096Z,4.00
2022-10-12T16:35:55.589Z,4.38
2022-10-12T16:38:23.124Z,4.43
2022-10-12T16:40:53.046Z,4.18
2022-10-12T16:43:23.164Z,4.90
2022-10-12T16:45:56.871Z,4.10
2022-10-12T16:48:24.523Z,4.15
2022-10-12T16:50:52.184Z,4.13
2022-10-12T16:53:19.849Z,3.92
2022-10-12T16:55:47.335Z,3.83
2022-10-12T16:58:15.162Z,3.58
2022-10-12T17:00:43.383Z,3.42
2022-10-12T17:03:13.910Z,3.55
2022-10-12T17:05:43.614Z,3.30
2022-10-12T17:08:14.963Z,3.00
2022-10-12T17:10:44.472Z,3.10
2022-10-12T17:13:14.435Z,3.20
2022-10-12T17:15:42.714Z,3.13
2022-10-12T17:20:37.549Z,3.30
2022-10-12T17:23:05.419Z,3.20
2022-10-12T17:25:32.885Z,3.38
2022-10-12T17:28:00.419Z,3.22
2022-10-12T17:30:30.925Z,3.33
2022-10-12T17:32:58.535Z,3.55
2022-10-12T17:35:26.041Z,3.45
2022-10-12T17:37:53.496Z,3.28
2022-10-12T17:40:21.031Z,3.65
2022-10-12T17:42:48.701Z,3.72
2022-10-12T17:45:16.191Z,3.75
2022-10-12T17:47:44.202Z,4.07
2022-10-12T17:50:12.106Z,3.90
2022-10-12T17:52:39.788Z,3.90
2022-10-12T17:55:29.893Z,3.85
2022-10-12T17:58:02.511Z,3.90
2022-10-12T18:00:30.047Z,3.75
2022-10-12T18:02:59.919Z,3.70
2022-10-12T18:05:28.188Z,3.92
2022-10-12T18:10:28.436Z,3.80
2022-10-12T18:12:56.309Z,3.67
2022-10-12T18:15:23.761Z,3.33
2022-10-12T18:17:51.228Z,3.95
2022-10-12T18:20:18.993Z,3.35
2022-10-12T18:22:46.448Z,3.33
2022-10-12T18:25:15.500Z,3.65
2022-10-12T18:27:44.088Z,3.40
2022-10-12T18:30:12.105Z,3.53
2022-10-12T18:32:39.648Z,4.00
2022-10-12T18:35:07.368Z,3.20
2022-10-12T18:37:34.824Z,3.13
2022-10-12T18:40:02.315Z,3.15
2022-10-12T18:42:29.821Z,3.42
2022-10-12T18:44:59.487Z,3.08
2022-10-12T18:47:26.982Z,3.38
2022-10-12T18:49:54.454Z,3.30
2022-10-12T18:52:21.915Z,3.25
2022-10-12T18:54:52.472Z,3.30
2022-10-12T18:57:19.968Z,3.40
2022-10-12T18:59:50.389Z,3.50
2022-10-12T19:02:20.859Z,3.00
2022-10-12T19:04:48.727Z,3.15
2022-10-12T19:07:16.973Z,3.17
2022-10-12T19:12:14.004Z,3.30
2022-10-12T19:14:41.557Z,3.63
2022-10-12T19:17:09.145Z,3.15
2022-10-12T19:19:36.864Z,3.03
2022-10-12T19:22:04.731Z,2.78
2022-10-12T19:24:32.220Z,3.15
2022-10-12T19:26:59.787Z,3.15
2022-10-12T19:29:29.666Z,3.30
2022-10-12T19:31:57.338Z,3.03
2022-10-12T19:34:25.060Z,3.45
2022-10-12T19:36:52.904Z,3.08
2022-10-12T19:39:24.068Z,3.50
2022-10-12T19:41:52.055Z,3.53
2022-10-12T19:44:19.604Z,3.55
2022-10-12T19:46:48.855Z,3.00
2022-10-12T19:49:18.068Z,3.47
2022-10-12T19:51:46.510Z,3.95
2022-10-12T19:54:16.789Z,3.95
2022-10-12T19:56:44.306Z,3.20
2022-10-12T19:59:17.136Z,3.13
2022-10-12T20:01:48.008Z,3.47
2022-10-12T20:04:15.772Z,3.30
2022-10-12T20:06:43.336Z,3.15
2022-10-12T20:09:11.100Z,3.15
2022-10-12T20:11:39.008Z,3.75
2022-10-12T20:14:06.554Z,3.55
2022-10-12T20:16:35.406Z,3.50
2022-10-12T20:19:08.162Z,3.22
2022-10-12T20:21:36.640Z,3.20
2022-10-12T20:24:05.017Z,3.75
2022-10-12T20:26:32.575Z,3.70
2022-10-12T20:29:01.015Z,3.63
2022-10-12T20:31:29.350Z,3.55
2022-10-12T20:36:30.646Z,3.65
2022-10-12T20:38:59.351Z,4.00
2022-10-12T20:41:27.665Z,3.63
2022-10-12T20:43:57.188Z,3.42
2022-10-12T20:46:24.824Z,4.13
2022-10-12T20:48:58.366Z,3.60
2022-10-12T20:51:32.311Z,3.55
2022-10-12T20:54:00.988Z,3.92
2022-10-12T20:56:33.279Z,3.53
2022-10-12T20:59:01.538Z,3.65
2022-10-12T21:03:57.034Z,3.35
2022-10-12T21:06:25.054Z,3.70
2022-10-12T21:08:55.005Z,3.53
2022-10-12T21:11:22.950Z,3.28
2022-10-12T21:13:51.076Z,3.13
2022-10-12T21:16:19.194Z,3.10
2022-10-12T21:18:46.960Z,3.38
2022-10-12T21:21:17.490Z,3.83
2022-10-12T21:23:54.980Z,3.45
2022-10-12T21:26:24.252Z,3.43
2022-10-12T21:28:52.218Z,3.30
2022-10-12T21:31:20.083Z,3.17
2022-10-12T21:33:47.600Z,3.40
2022-10-12T21:36:24.307Z,3.65
2022-10-12T21:38:52.168Z,3.67
2022-10-12T21:41:21.814Z,3.47
2022-10-12T21:43:50.024Z,3.00
2022-10-12T21:48:47.272Z,3.47
2022-10-12T21:51:15.544Z,3.05
2022-10-12T21:56:17.151Z,3.30
2022-10-12T21:58:45.627Z,3.33
2022-10-12T22:01:16.285Z,3.63
2022-10-12T22:03:44.865Z,3.38
2022-10-12T22:06:18.211Z,3.03
2022-10-12T22:08:59.390Z,3.40
2022-10-12T22:11:28.905Z,3.88
2022-10-12T22:14:05.387Z,3.83
2022-10-12T22:16:33.275Z,3.63
2022-10-12T22:19:03.408Z,3.58
2022-10-12T22:21:33.871Z,3.67
2022-10-12T22:24:02.466Z,3.88
2022-10-12T22:26:30.511Z,3.42
2022-10-12T22:29:00.450Z,3.40
2022-10-12T22:31:28.466Z,4.00
2022-10-12T22:33:56.465Z,3.60
2022-10-12T22:36:24.135Z,3.72
2022-10-12T22:38:51.884Z,3.00
2022-10-12T22:41:21.719Z,3.65
2022-10-12T22:43:51.499Z,3.50
2022-10-12T22:46:20.183Z,3.72
2022-10-12T22:48:48.376Z,3.75
2022-10-12T22:53:45.419Z,3.80
2022-10-12T22:56:18.325Z,4.40
2022-10-12T22:58:48.335Z,3.95
2022-10-12T23:01:17.302Z,4.43
2022-10-12T23:03:45.907Z,4.05
2022-10-12T23:06:16.640Z,4.28
2022-10-12T23:08:45.044Z,4.38
2022-10-12T23:11:19.240Z,4.97
2022-10-12T23:13:48.125Z,5.30
2022-10-12T23:16:21.393Z,5.68
2022-10-12T23:18:58.818Z,6.07
2022-10-12T23:21:28.642Z,6.10
2022-10-12T23:23:56.399Z,6.93
2022-10-12T23:26:25.921Z,6.20
2022-10-12T23:28:54.281Z,5.75
2022-10-12T23:31:24.748Z,6.50
2022-10-12T23:34:01.212Z,5.90
2022-10-12T23:36:29.584Z,5.47
2022-10-12T23:39:00.175Z,4.93
2022-10-12T23:41:27.629Z,4.75
2022-10-12T23:43:55.085Z,4.80
2022-10-12T23:46:22.911Z,4.90
2022-10-12T23:48:50.747Z,4.55
2022-10-12T23:51:18.304Z,4.30
2022-10-12T23:53:45.993Z,3.80
2022-10-12T23:56:13.499Z,3.55
2022-10-12T23:58:40.929Z,3.45
